sensor_id;sensor_type;location;lat;lon;timestamp;P1;durP1;ratioP1;P2;durP2;ratioP2
42036;SDS011;30340;52.004;5.908;2023-04-06T00:00:48;6.93;;;5.55;;
42036;SDS011;30340;52.004;5.908;2023-04-06T00:03:14;7.38;;;5.55;;
42036;SDS011;30340;52.004;5.908;2023-04-06T00:05:40;8.23;;;5.80;;
42036;SDS011;30340;52.004;5.908;2023-04-06T00:08:06;7.72;;;5.63;;
42036;SDS011;30340;52.004;5.908;2023-04-06T00:10:32;7.47;;;5.50;;
42036;SDS011;30340;52.004;5.908;2023-04-06T00:12:58;7.05;;;5.15;;
42036;SDS011;30340;52.004;5.908;2023-04-06T00:15:24;8.90;;;5.97;;
42036;SDS011;30340;52.004;5.908;2023-04-06T00:17:50;9.85;;;6.38;;
42036;SDS011;30340;52.004;5.908;2023-04-06T00:20:16;9.00;;;5.93;;
42036;SDS011;30340;52.004;5.908;2023-04-06T00:22:42;10.10;;;5.57;;
42036;SDS011;30340;52.004;5.908;2023-04-06T00:25:08;9.30;;;6.20;;
42036;SDS011;30340;52.004;5.908;2023-04-06T00:27:35;8.15;;;5.63;;
42036;SDS011;30340;52.004;5.908;2023-04-06T00:30:01;9.68;;;6.43;;
42036;SDS011;30340;52.004;5.908;2023-04-06T00:32:28;9.60;;;5.65;;
42036;SDS011;30340;52.004;5.908;2023-04-06T00:34:53;9.75;;;5.90;;
42036;SDS011;30340;52.004;5.908;2023-04-06T00:37:19;7.03;;;5.28;;
42036;SDS011;30340;52.004;5.908;2023-04-06T00:39:44;8.18;;;5.45;;
42036;SDS011;30340;52.004;5.908;2023-04-06T00:42:10;8.50;;;5.32;;
42036;SDS011;30340;52.004;5.908;2023-04-06T00:44:40;8.30;;;5.60;;
42036;SDS011;30340;52.004;5.908;2023-04-06T00:47:07;9.40;;;5.00;;
42036;SDS011;30340;52.004;5.908;2023-04-06T00:49:33;7.65;;;5.28;;
42036;SDS011;30340;52.004;5.908;2023-04-06T00:51:59;8.88;;;5.60;;
42036;SDS011;30340;52.004;5.908;2023-04-06T00:54:24;7.60;;;5.22;;
42036;SDS011;30340;52.004;5.908;2023-04-06T00:56:50;8.63;;;5.93;;
42036;SDS011;30340;52.004;5.908;2023-04-06T00:59:16;9.68;;;6.55;;
42036;SDS011;30340;52.004;5.908;2023-04-06T01:01:42;9.38;;;6.40;;
42036;SDS011;30340;52.004;5.908;2023-04-06T01:04:07;9.85;;;6.47;;
42036;SDS011;30340;52.004;5.908;2023-04-06T01:06:33;11.73;;;7.80;;
42036;SDS011;30340;52.004;5.908;2023-04-06T01:08:58;9.80;;;7.18;;
42036;SDS011;30340;52.004;5.908;2023-04-06T01:11:24;10.80;;;6.88;;
42036;SDS011;30340;52.004;5.908;2023-04-06T01:13:51;8.38;;;6.32;;
42036;SDS011;30340;52.004;5.908;2023-04-06T01:16:16;8.40;;;6.75;;
42036;SDS011;30340;52.004;5.908;2023-04-06T01:18:42;9.35;;;6.43;;
42036;SDS011;30340;52.004;5.908;2023-04-06T01:21:08;7.50;;;6.22;;
42036;SDS011;30340;52.004;5.908;2023-04-06T01:23:40;9.75;;;6.50;;
42036;SDS011;30340;52.004;5.908;2023-04-06T01:26:12;18.88;;;11.63;;
42036;SDS011;30340;52.004;5.908;2023-04-06T01:28:38;14.57;;;8.15;;
42036;SDS011;30340;52.004;5.908;2023-04-06T01:31:04;9.95;;;6.88;;
42036;SDS011;30340;52.004;5.908;2023-04-06T01:33:33;10.27;;;6.70;;
42036;SDS011;30340;52.004;5.908;2023-04-06T01:35:58;10.65;;;6.40;;
42036;SDS011;30340;52.004;5.908;2023-04-06T01:38:25;8.77;;;6.43;;
42036;SDS011;30340;52.004;5.908;2023-04-06T01:40:51;9.00;;;6.05;;
42036;SDS011;30340;52.004;5.908;2023-04-06T01:43:17;8.68;;;6.13;;
42036;SDS011;30340;52.004;5.908;2023-04-06T01:45:43;9.30;;;6.07;;
42036;SDS011;30340;52.004;5.908;2023-04-06T01:48:08;9.90;;;6.05;;
42036;SDS011;30340;52.004;5.908;2023-04-06T01:50:34;9.27;;;5.80;;
42036;SDS011;30340;52.004;5.908;2023-04-06T01:53:00;8.05;;;5.47;;
42036;SDS011;30340;52.004;5.908;2023-04-06T01:55:25;8.10;;;5.45;;
42036;SDS011;30340;52.004;5.908;2023-04-06T01:57:51;7.18;;;5.40;;
42036;SDS011;30340;52.004;5.908;2023-04-06T02:00:17;8.20;;;5.80;;
42036;SDS011;30340;52.004;5.908;2023-04-06T02:02:42;9.07;;;6.07;;
42036;SDS011;30340;52.004;5.908;2023-04-06T02:05:08;12.23;;;7.93;;
42036;SDS011;30340;52.004;5.908;2023-04-06T02:07:34;9.43;;;6.57;;
42036;SDS011;30340;52.004;5.908;2023-04-06T02:09:59;8.75;;;6.05;;
42036;SDS011;30340;52.004;5.908;2023-04-06T02:12:25;9.55;;;5.97;;
42036;SDS011;30340;52.004;5.908;2023-04-06T02:14:50;7.45;;;5.40;;
42036;SDS011;30340;52.004;5.908;2023-04-06T02:17:16;7.50;;;5.75;;
42036;SDS011;30340;52.004;5.908;2023-04-06T02:19:42;7.22;;;5.43;;
42036;SDS011;30340;52.004;5.908;2023-04-06T02:22:07;8.20;;;5.68;;
42036;SDS011;30340;52.004;5.908;2023-04-06T02:24:33;9.73;;;5.70;;
42036;SDS011;30340;52.004;5.908;2023-04-06T02:26:59;8.55;;;6.13;;
42036;SDS011;30340;52.004;5.908;2023-04-06T02:29:25;8.95;;;6.13;;
42036;SDS011;30340;52.004;5.908;2023-04-06T02:31:51;8.07;;;5.85;;
42036;SDS011;30340;52.004;5.908;2023-04-06T02:34:16;10.05;;;6.63;;
42036;SDS011;30340;52.004;5.908;2023-04-06T02:36:45;11.35;;;7.43;;
42036;SDS011;30340;52.004;5.908;2023-04-06T02:39:11;10.27;;;7.13;;
42036;SDS011;30340;52.004;5.908;2023-04-06T02:41:37;8.88;;;6.43;;
42036;SDS011;30340;52.004;5.908;2023-04-06T02:44:04;10.43;;;6.32;;
42036;SDS011;30340;52.004;5.908;2023-04-06T02:46:31;8.88;;;6.15;;
42036;SDS011;30340;52.004;5.908;2023-04-06T02:48:57;9.27;;;6.50;;
42036;SDS011;30340;52.004;5.908;2023-04-06T02:51:25;8.95;;;5.90;;
42036;SDS011;30340;52.004;5.908;2023-04-06T02:53:51;9.57;;;6.82;;
42036;SDS011;30340;52.004;5.908;2023-04-06T02:56:16;10.07;;;7.50;;
42036;SDS011;30340;52.004;5.908;2023-04-06T02:58:42;8.05;;;5.70;;
42036;SDS011;30340;52.004;5.908;2023-04-06T03:01:07;16.00;;;9.70;;
42036;SDS011;30340;52.004;5.908;2023-04-06T03:03:33;11.18;;;7.82;;
42036;SDS011;30340;52.004;5.908;2023-04-06T03:05:59;10.20;;;7.10;;
42036;SDS011;30340;52.004;5.908;2023-04-06T03:08:25;9.82;;;6.88;;
42036;SDS011;30340;52.004;5.908;2023-04-06T03:10:50;9.73;;;6.70;;
42036;SDS011;30340;52.004;5.908;2023-04-06T03:13:16;10.82;;;7.22;;
42036;SDS011;30340;52.004;5.908;2023-04-06T03:15:41;12.63;;;6.93;;
42036;SDS011;30340;52.004;5.908;2023-04-06T03:18:07;8.98;;;6.55;;
42036;SDS011;30340;52.004;5.908;2023-04-06T03:20:32;10.25;;;6.97;;
42036;SDS011;30340;52.004;5.908;2023-04-06T03:22:58;8.30;;;6.03;;
42036;SDS011;30340;52.004;5.908;2023-04-06T03:25:24;8.90;;;6.63;;
42036;SDS011;30340;52.004;5.908;2023-04-06T03:27:49;8.82;;;6.60;;
42036;SDS011;30340;52.004;5.908;2023-04-06T03:30:15;8.77;;;5.93;;
42036;SDS011;30340;52.004;5.908;2023-04-06T03:32:42;10.15;;;6.90;;
42036;SDS011;30340;52.004;5.908;2023-04-06T03:35:08;9.73;;;6.88;;
42036;SDS011;30340;52.004;5.908;2023-04-06T03:37:34;11.57;;;6.82;;
42036;SDS011;30340;52.004;5.908;2023-04-06T03:40:00;10.00;;;6.75;;
42036;SDS011;30340;52.004;5.908;2023-04-06T03:42:26;11.32;;;7.53;;
42036;SDS011;30340;52.004;5.908;2023-04-06T03:44:51;11.35;;;7.45;;
42036;SDS011;30340;52.004;5.908;2023-04-06T03:47:17;11.00;;;7.72;;
42036;SDS011;30340;52.004;5.908;2023-04-06T03:49:42;11.43;;;8.10;;
42036;SDS011;30340;52.004;5.908;2023-04-06T03:52:08;12.85;;;7.85;;
42036;SDS011;30340;52.004;5.908;2023-04-06T03:54:34;10.57;;;7.93;;
42036;SDS011;30340;52.004;5.908;2023-04-06T03:57:00;11.15;;;7.57;;
42036;SDS011;30340;52.004;5.908;2023-04-06T03:59:26;12.57;;;8.30;;
42036;SDS011;30340;52.004;5.908;2023-04-06T04:01:51;11.85;;;8.13;;
42036;SDS011;30340;52.004;5.908;2023-04-06T04:04:17;11.25;;;7.53;;
42036;SDS011;30340;52.004;5.908;2023-04-06T04:06:42;9.98;;;7.38;;
42036;SDS011;30340;52.004;5.908;2023-04-06T04:09:08;11.27;;;7.45;;
42036;SDS011;30340;52.004;5.908;2023-04-06T04:11:33;12.73;;;8.60;;
42036;SDS011;30340;52.004;5.908;2023-04-06T04:13:59;11.85;;;7.40;;
42036;SDS011;30340;52.004;5.908;2023-04-06T04:16:25;12.52;;;7.70;;
42036;SDS011;30340;52.004;5.908;2023-04-06T04:18:50;11.25;;;7.97;;
42036;SDS011;30340;52.004;5.908;2023-04-06T04:21:16;11.82;;;7.80;;
42036;SDS011;30340;52.004;5.908;2023-04-06T04:23:41;11.73;;;7.72;;
42036;SDS011;30340;52.004;5.908;2023-04-06T04:26:07;11.23;;;7.68;;
42036;SDS011;30340;52.004;5.908;2023-04-06T04:28:32;11.57;;;7.80;;
42036;SDS011;30340;52.004;5.908;2023-04-06T04:30:58;12.00;;;8.13;;
42036;SDS011;30340;52.004;5.908;2023-04-06T04:33:23;13.05;;;9.15;;
42036;SDS011;30340;52.004;5.908;2023-04-06T04:35:49;12.38;;;8.10;;
42036;SDS011;30340;52.004;5.908;2023-04-06T04:38:14;11.75;;;7.78;;
42036;SDS011;30340;52.004;5.908;2023-04-06T04:40:40;13.05;;;9.23;;
42036;SDS011;30340;52.004;5.908;2023-04-06T04:43:05;13.63;;;9.23;;
42036;SDS011;30340;52.004;5.908;2023-04-06T04:45:31;12.60;;;8.70;;
42036;SDS011;30340;52.004;5.908;2023-04-06T04:47:56;12.55;;;8.23;;
42036;SDS011;30340;52.004;5.908;2023-04-06T04:50:22;12.05;;;7.80;;
42036;SDS011;30340;52.004;5.908;2023-04-06T04:52:47;13.20;;;9.07;;
42036;SDS011;30340;52.004;5.908;2023-04-06T04:55:13;11.65;;;8.43;;
42036;SDS011;30340;52.004;5.908;2023-04-06T04:57:39;11.32;;;7.90;;
42036;SDS011;30340;52.004;5.908;2023-04-06T05:00:05;14.73;;;8.30;;
42036;SDS011;30340;52.004;5.908;2023-04-06T05:02:31;10.48;;;7.32;;
42036;SDS011;30340;52.004;5.908;2023-04-06T05:04:56;11.27;;;7.95;;
42036;SDS011;30340;52.004;5.908;2023-04-06T05:07:22;11.40;;;8.43;;
42036;SDS011;30340;52.004;5.908;2023-04-06T05:09:47;11.00;;;7.55;;
42036;SDS011;30340;52.004;5.908;2023-04-06T05:12:13;11.10;;;7.95;;
42036;SDS011;30340;52.004;5.908;2023-04-06T05:14:39;13.43;;;8.70;;
42036;SDS011;30340;52.004;5.908;2023-04-06T05:17:04;13.70;;;8.52;;
42036;SDS011;30340;52.004;5.908;2023-04-06T05:19:30;11.55;;;7.75;;
42036;SDS011;30340;52.004;5.908;2023-04-06T05:21:55;11.13;;;7.30;;
42036;SDS011;30340;52.004;5.908;2023-04-06T05:24:21;12.50;;;7.30;;
42036;SDS011;30340;52.004;5.908;2023-04-06T05:26:47;16.70;;;10.35;;
42036;SDS011;30340;52.004;5.908;2023-04-06T05:29:13;12.15;;;7.90;;
42036;SDS011;30340;52.004;5.908;2023-04-06T05:31:39;11.63;;;7.20;;
42036;SDS011;30340;52.004;5.908;2023-04-06T05:34:05;12.68;;;7.45;;
42036;SDS011;30340;52.004;5.908;2023-04-06T05:36:31;13.48;;;9.40;;
42036;SDS011;30340;52.004;5.908;2023-04-06T05:38:57;13.07;;;8.80;;
42036;SDS011;30340;52.004;5.908;2023-04-06T05:41:23;14.02;;;9.02;;
42036;SDS011;30340;52.004;5.908;2023-04-06T05:43:49;12.85;;;9.02;;
42036;SDS011;30340;52.004;5.908;2023-04-06T05:46:14;12.45;;;8.13;;
42036;SDS011;30340;52.004;5.908;2023-04-06T05:48:40;11.77;;;8.43;;
42036;SDS011;30340;52.004;5.908;2023-04-06T05:51:06;12.23;;;8.00;;
42036;SDS011;30340;52.004;5.908;2023-04-06T05:53:31;17.30;;;10.25;;
42036;SDS011;30340;52.004;5.908;2023-04-06T05:56:00;12.27;;;8.90;;
42036;SDS011;30340;52.004;5.908;2023-04-06T05:58:26;13.43;;;9.57;;
42036;SDS011;30340;52.004;5.908;2023-04-06T06:00:56;12.38;;;8.80;;
42036;SDS011;30340;52.004;5.908;2023-04-06T06:03:25;12.15;;;8.77;;
42036;SDS011;30340;52.004;5.908;2023-04-06T06:05:51;15.18;;;8.13;;
42036;SDS011;30340;52.004;5.908;2023-04-06T06:08:17;14.88;;;9.90;;
42036;SDS011;30340;52.004;5.908;2023-04-06T06:10:42;12.75;;;9.80;;
42036;SDS011;30340;52.004;5.908;2023-04-06T06:13:08;17.55;;;10.48;;
42036;SDS011;30340;52.004;5.908;2023-04-06T06:15:34;15.57;;;10.38;;
42036;SDS011;30340;52.004;5.908;2023-04-06T06:18:00;14.48;;;9.50;;
42036;SDS011;30340;52.004;5.908;2023-04-06T06:20:26;15.23;;;10.40;;
42036;SDS011;30340;52.004;5.908;2023-04-06T06:22:52;15.93;;;10.27;;
42036;SDS011;30340;52.004;5.908;2023-04-06T06:25:17;14.45;;;8.77;;
42036;SDS011;30340;52.004;5.908;2023-04-06T06:27:43;18.23;;;11.48;;
42036;SDS011;30340;52.004;5.908;2023-04-06T06:30:09;16.00;;;11.10;;
42036;SDS011;30340;52.004;5.908;2023-04-06T06:32:34;12.50;;;8.90;;
42036;SDS011;30340;52.004;5.908;2023-04-06T06:35:00;16.02;;;11.27;;
42036;SDS011;30340;52.004;5.908;2023-04-06T06:37:26;17.00;;;10.32;;
42036;SDS011;30340;52.004;5.908;2023-04-06T06:39:51;18.27;;;12.07;;
42036;SDS011;30340;52.004;5.908;2023-04-06T06:42:17;18.95;;;11.85;;
42036;SDS011;30340;52.004;5.908;2023-04-06T06:44:42;18.88;;;12.45;;
42036;SDS011;30340;52.004;5.908;2023-04-06T06:47:08;16.98;;;11.00;;
42036;SDS011;30340;52.004;5.908;2023-04-06T06:49:33;15.80;;;11.52;;
42036;SDS011;30340;52.004;5.908;2023-04-06T06:51:59;17.85;;;12.77;;
42036;SDS011;30340;52.004;5.908;2023-04-06T06:54:24;19.55;;;12.23;;
42036;SDS011;30340;52.004;5.908;2023-04-06T06:56:50;19.05;;;12.60;;
42036;SDS011;30340;52.004;5.908;2023-04-06T06:59:15;17.55;;;12.55;;
42036;SDS011;30340;52.004;5.908;2023-04-06T07:01:41;18.23;;;11.43;;
42036;SDS011;30340;52.004;5.908;2023-04-06T07:04:07;19.55;;;11.82;;
42036;SDS011;30340;52.004;5.908;2023-04-06T07:06:34;15.73;;;10.98;;
42036;SDS011;30340;52.004;5.908;2023-04-06T07:09:00;17.73;;;12.88;;
42036;SDS011;30340;52.004;5.908;2023-04-06T07:11:28;18.38;;;12.70;;
42036;SDS011;30340;52.004;5.908;2023-04-06T07:13:55;18.88;;;12.57;;
42036;SDS011;30340;52.004;5.908;2023-04-06T07:16:22;18.33;;;11.95;;
42036;SDS011;30340;52.004;5.908;2023-04-06T07:18:47;16.60;;;10.88;;
42036;SDS011;30340;52.004;5.908;2023-04-06T07:21:13;17.05;;;11.60;;
42036;SDS011;30340;52.004;5.908;2023-04-06T07:23:38;15.90;;;11.43;;
42036;SDS011;30340;52.004;5.908;2023-04-06T07:26:04;17.25;;;11.98;;
42036;SDS011;30340;52.004;5.908;2023-04-06T07:28:30;17.17;;;11.50;;
42036;SDS011;30340;52.004;5.908;2023-04-06T07:30:55;18.60;;;11.60;;
42036;SDS011;30340;52.004;5.908;2023-04-06T07:33:21;15.20;;;10.40;;
42036;SDS011;30340;52.004;5.908;2023-04-06T07:35:47;17.58;;;12.00;;
42036;SDS011;30340;52.004;5.908;2023-04-06T07:38:13;16.40;;;11.45;;
42036;SDS011;30340;52.004;5.908;2023-04-06T07:40:38;19.15;;;12.68;;
42036;SDS011;30340;52.004;5.908;2023-04-06T07:43:04;19.83;;;12.55;;
42036;SDS011;30340;52.004;5.908;2023-04-06T07:45:30;17.00;;;12.35;;
42036;SDS011;30340;52.004;5.908;2023-04-06T07:47:55;17.92;;;11.57;;
42036;SDS011;30340;52.004;5.908;2023-04-06T07:50:21;17.30;;;12.25;;
42036;SDS011;30340;52.004;5.908;2023-04-06T07:52:46;17.05;;;10.85;;
42036;SDS011;30340;52.004;5.908;2023-04-06T07:55:12;22.10;;;12.07;;
42036;SDS011;30340;52.004;5.908;2023-04-06T07:57:37;13.90;;;9.90;;
42036;SDS011;30340;52.004;5.908;2023-04-06T08:00:03;15.45;;;11.43;;
42036;SDS011;30340;52.004;5.908;2023-04-06T08:02:31;19.42;;;12.60;;
42036;SDS011;30340;52.004;5.908;2023-04-06T08:04:57;17.88;;;12.93;;
42036;SDS011;30340;52.004;5.908;2023-04-06T08:07:22;17.13;;;12.13;;
42036;SDS011;30340;52.004;5.908;2023-04-06T08:09:48;17.38;;;12.05;;
42036;SDS011;30340;52.004;5.908;2023-04-06T08:12:14;17.25;;;12.20;;
42036;SDS011;30340;52.004;5.908;2023-04-06T08:14:39;15.80;;;11.07;;
42036;SDS011;30340;52.004;5.908;2023-04-06T08:17:05;17.50;;;12.55;;
42036;SDS011;30340;52.004;5.908;2023-04-06T08:19:31;19.23;;;13.27;;
42036;SDS011;30340;52.004;5.908;2023-04-06T08:21:56;19.35;;;12.32;;
42036;SDS011;30340;52.004;5.908;2023-04-06T08:24:22;21.10;;;12.95;;
42036;SDS011;30340;52.004;5.908;2023-04-06T08:26:47;18.75;;;11.60;;
42036;SDS011;30340;52.004;5.908;2023-04-06T08:29:13;17.60;;;12.88;;
42036;SDS011;30340;52.004;5.908;2023-04-06T08:31:39;18.80;;;12.40;;
42036;SDS011;30340;52.004;5.908;2023-04-06T08:34:04;18.42;;;12.63;;
42036;SDS011;30340;52.004;5.908;2023-04-06T08:36:30;18.98;;;13.65;;
42036;SDS011;30340;52.004;5.908;2023-04-06T08:38:56;16.70;;;10.52;;
42036;SDS011;30340;52.004;5.908;2023-04-06T08:41:22;17.52;;;11.45;;
42036;SDS011;30340;52.004;5.908;2023-04-06T08:44:00;17.52;;;12.57;;
42036;SDS011;30340;52.004;5.908;2023-04-06T08:46:28;19.42;;;11.30;;
42036;SDS011;30340;52.004;5.908;2023-04-06T08:48:58;17.63;;;11.45;;
42036;SDS011;30340;52.004;5.908;2023-04-06T08:51:26;15.32;;;10.45;;
42036;SDS011;30340;52.004;5.908;2023-04-06T08:53:56;15.38;;;10.77;;
42036;SDS011;30340;52.004;5.908;2023-04-06T08:56:23;20.58;;;12.82;;
42036;SDS011;30340;52.004;5.908;2023-04-06T08:58:50;18.60;;;12.38;;
42036;SDS011;30340;52.004;5.908;2023-04-06T09:01:18;18.55;;;12.25;;
42036;SDS011;30340;52.004;5.908;2023-04-06T09:03:46;18.10;;;11.70;;
42036;SDS011;30340;52.004;5.908;2023-04-06T09:06:14;16.73;;;11.43;;
42036;SDS011;30340;52.004;5.908;2023-04-06T09:08:40;16.95;;;11.57;;
42036;SDS011;30340;52.004;5.908;2023-04-06T09:11:06;21.50;;;14.55;;
42036;SDS011;30340;52.004;5.908;2023-04-06T09:13:49;18.02;;;12.70;;
42036;SDS011;30340;52.004;5.908;2023-04-06T09:16:16;20.73;;;12.98;;
42036;SDS011;30340;52.004;5.908;2023-04-06T09:18:42;17.58;;;12.80;;
42036;SDS011;30340;52.004;5.908;2023-04-06T09:21:08;18.30;;;11.50;;
42036;SDS011;30340;52.004;5.908;2023-04-06T09:23:34;18.50;;;13.30;;
42036;SDS011;30340;52.004;5.908;2023-04-06T09:28:52;18.88;;;13.43;;
42036;SDS011;30340;52.004;5.908;2023-04-06T09:31:22;19.55;;;13.52;;
42036;SDS011;30340;52.004;5.908;2023-04-06T09:33:54;23.02;;;12.50;;
42036;SDS011;30340;52.004;5.908;2023-04-06T09:36:20;19.63;;;13.65;;
42036;SDS011;30340;52.004;5.908;2023-04-06T09:38:58;17.63;;;12.30;;
42036;SDS011;30340;52.004;5.908;2023-04-06T09:41:28;19.20;;;14.55;;
42036;SDS011;30340;52.004;5.908;2023-04-06T09:44:05;19.95;;;13.18;;
42036;SDS011;30340;52.004;5.908;2023-04-06T09:46:32;20.17;;;14.13;;
42036;SDS011;30340;52.004;5.908;2023-04-06T09:49:02;23.23;;;15.25;;
42036;SDS011;30340;52.004;5.908;2023-04-06T09:51:30;19.48;;;13.93;;
42036;SDS011;30340;52.004;5.908;2023-04-06T09:54:00;20.35;;;13.25;;
42036;SDS011;30340;52.004;5.908;2023-04-06T09:56:30;21.10;;;15.40;;
42036;SDS011;30340;52.004;5.908;2023-04-06T09:59:01;19.10;;;13.05;;
42036;SDS011;30340;52.004;5.908;2023-04-06T10:01:30;16.85;;;12.95;;
42036;SDS011;30340;52.004;5.908;2023-04-06T10:04:18;17.95;;;13.40;;
42036;SDS011;30340;52.004;5.908;2023-04-06T10:06:51;21.80;;;14.50;;
42036;SDS011;30340;52.004;5.908;2023-04-06T10:09:18;22.05;;;15.65;;
42036;SDS011;30340;52.004;5.908;2023-04-06T10:11:48;21.00;;;14.75;;
42036;SDS011;30340;52.004;5.908;2023-04-06T10:14:15;19.75;;;14.02;;
42036;SDS011;30340;52.004;5.908;2023-04-06T10:16:41;20.15;;;13.15;;
42036;SDS011;30340;52.004;5.908;2023-04-06T10:19:10;24.95;;;16.02;;
42036;SDS011;30340;52.004;5.908;2023-04-06T10:21:40;27.17;;;18.63;;
42036;SDS011;30340;52.004;5.908;2023-04-06T10:24:09;26.30;;;14.85;;
42036;SDS011;30340;52.004;5.908;2023-04-06T10:26:35;22.45;;;15.80;;
42036;SDS011;30340;52.004;5.908;2023-04-06T10:29:04;18.95;;;13.00;;
42036;SDS011;30340;52.004;5.908;2023-04-06T10:31:30;19.48;;;12.70;;
42036;SDS011;30340;52.004;5.908;2023-04-06T10:33:56;17.40;;;12.27;;
42036;SDS011;30340;52.004;5.908;2023-04-06T10:36:25;18.67;;;12.65;;
42036;SDS011;30340;52.004;5.908;2023-04-06T10:38:57;16.08;;;11.30;;
42036;SDS011;30340;52.004;5.908;2023-04-06T10:41:34;19.48;;;12.60;;
42036;SDS011;30340;52.004;5.908;2023-04-06T10:44:20;22.23;;;14.77;;
42036;SDS011;30340;52.004;5.908;2023-04-06T10:46:57;19.48;;;13.38;;
42036;SDS011;30340;52.004;5.908;2023-04-06T10:49:25;15.38;;;10.20;;
42036;SDS011;30340;52.004;5.908;2023-04-06T10:51:52;19.38;;;13.57;;
42036;SDS011;30340;52.004;5.908;2023-04-06T10:54:20;18.30;;;12.90;;
42036;SDS011;30340;52.004;5.908;2023-04-06T10:56:47;17.70;;;12.75;;
42036;SDS011;30340;52.004;5.908;2023-04-06T10:59:13;21.60;;;14.70;;
42036;SDS011;30340;52.004;5.908;2023-04-06T11:01:44;19.17;;;12.98;;
42036;SDS011;30340;52.004;5.908;2023-04-06T11:04:15;16.63;;;11.68;;
42036;SDS011;30340;52.004;5.908;2023-04-06T11:06:48;15.38;;;11.40;;
42036;SDS011;30340;52.004;5.908;2023-04-06T11:09:23;17.27;;;13.00;;
42036;SDS011;30340;52.004;5.908;2023-04-06T11:11:51;15.07;;;11.32;;
42036;SDS011;30340;52.004;5.908;2023-04-06T11:14:17;16.35;;;11.43;;
42036;SDS011;30340;52.004;5.908;2023-04-06T11:16:42;17.88;;;13.48;;
42036;SDS011;30340;52.004;5.908;2023-04-06T11:19:13;16.48;;;12.23;;
42036;SDS011;30340;52.004;5.908;2023-04-06T11:21:42;15.25;;;12.48;;
42036;SDS011;30340;52.004;5.908;2023-04-06T11:24:13;15.63;;;10.52;;
42036;SDS011;30340;52.004;5.908;2023-04-06T11:26:54;15.40;;;11.85;;
42036;SDS011;30340;52.004;5.908;2023-04-06T11:29:22;14.93;;;12.15;;
42036;SDS011;30340;52.004;5.908;2023-04-06T11:31:52;14.68;;;10.90;;
42036;SDS011;30340;52.004;5.908;2023-04-06T11:34:22;14.70;;;11.10;;
42036;SDS011;30340;52.004;5.908;2023-04-06T11:36:54;16.90;;;12.65;;
42036;SDS011;30340;52.004;5.908;2023-04-06T11:39:22;13.98;;;10.23;;
42036;SDS011;30340;52.004;5.908;2023-04-06T11:41:52;15.90;;;10.43;;
42036;SDS011;30340;52.004;5.908;2023-04-06T11:44:36;13.82;;;10.32;;
42036;SDS011;30340;52.004;5.908;2023-04-06T11:47:08;14.13;;;9.98;;
42036;SDS011;30340;52.004;5.908;2023-04-06T11:49:39;12.43;;;9.38;;
42036;SDS011;30340;52.004;5.908;2023-04-06T11:54:45;13.18;;;10.10;;
42036;SDS011;30340;52.004;5.908;2023-04-06T11:57:11;13.77;;;9.63;;
42036;SDS011;30340;52.004;5.908;2023-04-06T11:59:37;13.18;;;8.98;;
42036;SDS011;30340;52.004;5.908;2023-04-06T12:02:02;11.90;;;9.57;;
42036;SDS011;30340;52.004;5.908;2023-04-06T12:04:28;13.15;;;9.75;;
42036;SDS011;30340;52.004;5.908;2023-04-06T12:06:54;13.82;;;9.52;;
42036;SDS011;30340;52.004;5.908;2023-04-06T12:09:20;12.27;;;9.05;;
42036;SDS011;30340;52.004;5.908;2023-04-06T12:11:46;11.15;;;7.88;;
42036;SDS011;30340;52.004;5.908;2023-04-06T12:14:12;13.88;;;9.48;;
42036;SDS011;30340;52.004;5.908;2023-04-06T12:16:38;13.25;;;9.48;;
42036;SDS011;30340;52.004;5.908;2023-04-06T12:19:04;13.43;;;9.45;;
42036;SDS011;30340;52.004;5.908;2023-04-06T12:21:30;12.30;;;9.38;;
42036;SDS011;30340;52.004;5.908;2023-04-06T12:23:59;10.95;;;7.72;;
42036;SDS011;30340;52.004;5.908;2023-04-06T12:26:25;10.85;;;8.55;;
42036;SDS011;30340;52.004;5.908;2023-04-06T12:28:52;12.35;;;8.77;;
42036;SDS011;30340;52.004;5.908;2023-04-06T12:31:18;11.85;;;9.20;;
42036;SDS011;30340;52.004;5.908;2023-04-06T12:33:48;11.88;;;9.50;;
42036;SDS011;30340;52.004;5.908;2023-04-06T12:36:15;12.40;;;9.23;;
42036;SDS011;30340;52.004;5.908;2023-04-06T12:38:43;13.43;;;8.50;;
42036;SDS011;30340;52.004;5.908;2023-04-06T12:41:12;12.27;;;8.80;;
42036;SDS011;30340;52.004;5.908;2023-04-06T12:43:41;10.77;;;8.25;;
42036;SDS011;30340;52.004;5.908;2023-04-06T12:46:07;10.52;;;7.30;;
42036;SDS011;30340;52.004;5.908;2023-04-06T12:48:33;10.30;;;8.23;;
42036;SDS011;30340;52.004;5.908;2023-04-06T12:51:01;9.88;;;7.25;;
42036;SDS011;30340;52.004;5.908;2023-04-06T12:53:28;10.55;;;7.00;;
42036;SDS011;30340;52.004;5.908;2023-04-06T12:55:54;10.70;;;7.18;;
42036;SDS011;30340;52.004;5.908;2023-04-06T12:58:21;11.00;;;7.10;;
42036;SDS011;30340;52.004;5.908;2023-04-06T13:00:48;9.82;;;6.90;;
42036;SDS011;30340;52.004;5.908;2023-04-06T13:03:15;7.28;;;5.50;;
42036;SDS011;30340;52.004;5.908;2023-04-06T13:05:45;8.10;;;5.97;;
42036;SDS011;30340;52.004;5.908;2023-04-06T13:08:12;9.68;;;6.63;;
42036;SDS011;30340;52.004;5.908;2023-04-06T13:10:38;8.05;;;5.70;;
42036;SDS011;30340;52.004;5.908;2023-04-06T13:13:07;7.95;;;5.88;;
42036;SDS011;30340;52.004;5.908;2023-04-06T13:15:33;8.90;;;6.00;;
42036;SDS011;30340;52.004;5.908;2023-04-06T13:18:01;7.90;;;5.82;;
42036;SDS011;30340;52.004;5.908;2023-04-06T13:20:27;7.70;;;6.00;;
42036;SDS011;30340;52.004;5.908;2023-04-06T13:22:53;8.75;;;6.30;;
42036;SDS011;30340;52.004;5.908;2023-04-06T13:25:18;7.43;;;5.47;;
42036;SDS011;30340;52.004;5.908;2023-04-06T13:27:44;9.20;;;6.68;;
42036;SDS011;30340;52.004;5.908;2023-04-06T13:30:12;10.45;;;6.25;;
42036;SDS011;30340;52.004;5.908;2023-04-06T13:32:38;6.97;;;4.85;;
42036;SDS011;30340;52.004;5.908;2023-04-06T13:35:04;10.52;;;7.22;;
42036;SDS011;30340;52.004;5.908;2023-04-06T13:37:31;9.18;;;6.72;;
42036;SDS011;30340;52.004;5.908;2023-04-06T13:39:57;10.43;;;7.00;;
42036;SDS011;30340;52.004;5.908;2023-04-06T13:42:23;9.57;;;6.00;;
42036;SDS011;30340;52.004;5.908;2023-04-06T13:44:48;10.23;;;7.22;;
42036;SDS011;30340;52.004;5.908;2023-04-06T13:47:15;8.40;;;6.80;;
42036;SDS011;30340;52.004;5.908;2023-04-06T13:49:41;9.50;;;7.05;;
42036;SDS011;30340;52.004;5.908;2023-04-06T13:52:07;9.38;;;7.00;;
42036;SDS011;30340;52.004;5.908;2023-04-06T13:54:32;11.38;;;7.75;;
42036;SDS011;30340;52.004;5.908;2023-04-06T13:56:58;11.50;;;7.97;;
42036;SDS011;30340;52.004;5.908;2023-04-06T13:59:23;9.57;;;6.88;;
42036;SDS011;30340;52.004;5.908;2023-04-06T14:01:49;10.52;;;7.80;;
42036;SDS011;30340;52.004;5.908;2023-04-06T14:04:15;10.73;;;7.88;;
42036;SDS011;30340;52.004;5.908;2023-04-06T14:06:40;12.43;;;8.63;;
42036;SDS011;30340;52.004;5.908;2023-04-06T14:09:06;10.45;;;7.55;;
42036;SDS011;30340;52.004;5.908;2023-04-06T14:11:32;11.18;;;8.30;;
42036;SDS011;30340;52.004;5.908;2023-04-06T14:13:57;11.60;;;8.45;;
42036;SDS011;30340;52.004;5.908;2023-04-06T14:16:24;11.95;;;8.55;;
42036;SDS011;30340;52.004;5.908;2023-04-06T14:18:49;11.70;;;9.10;;
42036;SDS011;30340;52.004;5.908;2023-04-06T14:21:16;11.23;;;8.73;;
42036;SDS011;30340;52.004;5.908;2023-04-06T14:23:41;12.45;;;8.07;;
42036;SDS011;30340;52.004;5.908;2023-04-06T14:26:07;12.63;;;8.70;;
42036;SDS011;30340;52.004;5.908;2023-04-06T14:28:34;12.50;;;8.52;;
42036;SDS011;30340;52.004;5.908;2023-04-06T14:31:02;11.85;;;8.95;;
42036;SDS011;30340;52.004;5.908;2023-04-06T14:33:34;11.18;;;7.68;;
42036;SDS011;30340;52.004;5.908;2023-04-06T14:36:02;12.57;;;9.05;;